Terminal Aerodrome Forecast
Issued by NWS Tampa Bay Area, FL

Home | Current Version | Previous Version | Text Only | Print | Product List | Glossary On
Versions: 1 2 3 4 5 6 7 8 9 10 11 12 13 14 15 16 17 18 19
000
FTUS42 KTBW 301137
TAFFMY
TAF
KFMY 301137Z 3012/3112 07005KT P6SM FEW015 BKN200
     FM301400 11009KT P6SM SCT020 SCT050 BKN200
     FM301600 11010KT P6SM VCTS SCT025CB BKN050
      TEMPO 3016/3020 3SM SHRA BKN025
     FM302000 11009KT P6SM VCTS SCT025CB BKN050
      TEMPO 3020/3024 6SM SHRA BKN025
     FM310100 11006KT P6SM VCSH SCT020 BKN050=

USA.gov is the U.S. government's official web portal to all federal, state and local government web resources and services.